Time;durP1;ratioP1;P1;durP2;ratioP2;P2;SDS_P1;SDS_P2;PMS_P1;PMS_P2;Temp;Humidity;BMP_temperature;BMP_pressure;BME280_temperature;BME280_humidity;BME280_pressure;Samples;Min_cycle;Max_cycle;Signal;HPM_P1;HPM_P2
2024/04/22 00:00:37;;;;;;;2.28;2.08;;;;;;;6.14;56.34;100820.66;11445118;25;20343;-62
2024/04/22 00:05:40;;;;;;;3.13;2.03;;;;;;;6.18;55.81;100823.09;11365469;25;20681;-63
2024/04/22 00:10:41;;;;;;;2.13;1.90;;;;;;;6.23;56.23;100825.47;11460895;25;20001;-63
2024/04/22 00:15:43;;;;;;;3.17;2.03;;;;;;;5.82;56.32;100799.38;11405931;25;20005;-63
2024/04/22 00:20:45;;;;;;;2.22;1.80;;;;;;;5.95;57.03;100821.59;11425070;25;20458;-64
2024/04/22 00:25:47;;;;;;;2.63;2.13;;;;;;;5.73;56.92;100821.00;11449641;25;20012;-62
2024/04/22 00:30:50;;;;;;;3.15;2.33;;;;;;;5.82;56.81;100816.13;11434593;25;20647;-61
2024/04/22 00:35:55;;;;;;;2.65;1.67;;;;;;;5.80;56.78;100801.28;11413925;25;20051;-62
2024/04/22 00:40:58;;;;;;;2.20;2.00;;;;;;;5.89;56.83;100806.06;11396493;25;20024;-63
2024/04/22 00:46:00;;;;;;;2.28;1.80;;;;;;;5.87;56.25;100809.72;11420869;25;20000;-64
2024/04/22 00:51:03;;;;;;;3.30;1.98;;;;;;;5.82;57.29;100815.25;11459704;25;19994;-63
2024/04/22 00:56:07;;;;;;;2.78;2.35;;;;;;;5.59;56.50;100779.47;11427779;25;20077;-62
2024/04/22 01:01:10;;;;;;;3.45;2.05;;;;;;;5.89;56.27;100816.63;11432171;25;20487;-62
2024/04/22 01:06:12;;;;;;;2.45;1.92;;;;;;;5.80;56.37;100811.84;11453186;25;20000;-63
2024/04/22 01:11:14;;;;;;;2.53;2.30;;;;;;;5.74;56.38;100822.72;11466910;25;20065;-61
2024/04/22 01:16:17;;;;;;;2.63;2.03;;;;;;;5.69;57.64;100830.00;11415373;25;20069;-63
2024/04/22 01:21:22;;;;;;;3.00;2.17;;;;;;;5.48;56.49;100796.69;11403150;25;20071;-63
2024/04/22 01:26:24;;;;;;;2.88;2.60;;;;;;;5.44;57.00;100815.41;11448444;25;20005;-61
2024/04/22 01:31:27;;;;;;;2.25;2.03;;;;;;;5.39;57.55;100822.69;11430395;25;20012;-62
2024/04/22 01:36:28;;;;;;;2.72;2.30;;;;;;;5.24;57.85;100805.81;11418024;25;19998;-63
2024/04/22 01:41:30;;;;;;;2.67;2.00;;;;;;;5.45;57.52;100822.38;11452515;25;20808;-62
2024/04/22 01:46:31;;;;;;;3.90;2.00;;;;;;;5.34;57.89;100795.69;11439365;25;20024;-63
2024/04/22 01:51:33;;;;;;;2.70;2.00;;;;;;;5.49;58.70;100818.66;11393454;25;20002;-63
2024/04/22 01:56:34;;;;;;;2.20;1.85;;;;;;;5.43;57.40;100806.63;11449857;25;19997;-62
2024/04/22 02:01:40;;;;;;;2.88;1.70;;;;;;;5.39;58.16;100813.00;11431812;25;20092;-61
2024/04/22 02:06:42;;;;;;;2.75;2.00;;;;;;;5.25;57.46;100794.34;11454510;25;20002;-63
2024/04/22 02:11:44;;;;;;;2.58;2.00;;;;;;;5.37;57.53;100806.09;11415044;25;20775;-63
2024/04/22 02:16:47;;;;;;;2.83;1.95;;;;;;;5.38;57.30;100805.16;11399834;25;20006;-64
2024/04/22 02:21:49;;;;;;;2.50;2.05;;;;;;;5.25;58.18;100800.47;11417303;25;20013;-64
2024/04/22 02:26:51;;;;;;;3.75;2.38;;;;;;;5.34;57.58;100800.97;11399342;25;20422;-63
2024/04/22 02:31:52;;;;;;;2.60;1.92;;;;;;;5.23;57.54;100802.34;11367244;25;20015;-62
2024/04/22 02:36:54;;;;;;;3.03;1.77;;;;;;;5.35;57.14;100806.16;11400327;25;20077;-62
2024/04/22 02:41:55;;;;;;;2.30;1.67;;;;;;;5.34;57.61;100793.88;11371217;25;20702;-63
2024/04/22 02:46:57;;;;;;;3.65;2.05;;;;;;;5.27;57.57;100788.06;11376433;25;20017;-62
2024/04/22 02:51:58;;;;;;;3.20;1.90;;;;;;;5.36;57.25;100791.16;11417910;25;20027;-63
2024/04/22 02:57:07;;;;;;;2.35;1.92;;;;;;;5.28;57.47;100795.06;11405684;25;20033;-63
2024/04/22 03:02:09;;;;;;;2.35;2.13;;;;;;;5.31;57.19;100794.91;11460263;25;20067;-62
2024/04/22 03:07:10;;;;;;;2.05;1.70;;;;;;;5.32;56.49;100795.75;11457616;25;20002;-64
2024/04/22 03:12:13;;;;;;;2.33;1.95;;;;;;;5.30;57.33;100787.91;11467811;25;19996;-63
2024/04/22 03:17:14;;;;;;;2.13;1.92;;;;;;;5.30;57.19;100792.34;11450860;25;20001;-64
2024/04/22 03:22:16;;;;;;;2.55;2.13;;;;;;;5.25;56.96;100776.72;11416396;25;20000;-62
2024/04/22 03:27:18;;;;;;;2.00;1.73;;;;;;;5.32;57.01;100788.69;11463217;25;20580;-62
2024/04/22 03:32:19;;;;;;;3.35;1.75;;;;;;;5.22;57.14;100784.78;11461872;25;20001;-62
2024/04/22 03:37:20;;;;;;;2.38;1.63;;;;;;;5.27;57.21;100774.88;11395322;25;20002;-62
2024/04/22 03:42:22;;;;;;;4.45;2.03;;;;;;;5.28;57.80;100792.44;11439541;25;20040;-62
2024/04/22 03:52:43;;;;;;;2.17;1.98;;;;;;;5.25;57.38;100781.16;11461132;25;20517;-63
2024/04/22 03:57:45;;;;;;;3.83;2.00;;;;;;;5.24;56.63;100782.94;11399264;25;20009;-63
2024/04/22 04:02:50;;;;;;;2.33;2.05;;;;;;;5.16;57.16;100777.19;11361632;25;20061;-62
2024/04/22 04:07:52;;;;;;;2.17;1.63;;;;;;;5.24;56.88;100777.66;11393952;25;20465;-63
2024/04/22 04:12:54;;;;;;;1.98;1.73;;;;;;;5.18;58.16;100777.97;11424039;25;20056;-63
2024/04/22 04:17:56;;;;;;;2.88;1.80;;;;;;;5.21;57.18;100783.09;11376062;25;20004;-63
2024/04/22 04:22:58;;;;;;;2.75;1.70;;;;;;;5.13;56.57;100775.56;11383154;25;20061;-61
2024/04/22 04:28:00;;;;;;;2.63;1.70;;;;;;;5.22;57.28;100782.16;11456344;25;20000;-64
2024/04/22 04:33:02;;;;;;;2.97;1.80;;;;;;;5.28;56.59;100788.91;11465086;25;19998;-61
2024/04/22 04:38:04;;;;;;;2.72;1.98;;;;;;;5.22;56.73;100787.44;11424677;25;20009;-62
2024/04/22 04:43:10;;;;;;;2.95;2.00;;;;;;;5.30;57.28;100789.72;11453458;25;20008;-63
2024/04/22 04:48:11;;;;;;;1.67;1.40;;;;;;;5.27;56.88;100788.06;11489924;25;20001;-64
2024/04/22 04:53:14;;;;;;;4.47;2.20;;;;;;;5.26;57.26;100791.63;11440856;25;20009;-63
2024/04/22 04:58:17;;;;;;;2.17;1.90;;;;;;;5.43;56.90;100792.56;11473982;25;20001;-63
2024/04/22 05:03:20;;;;;;;;;;;;;;;5.58;57.25;100796.22;11431544;25;20016;-63
2024/04/22 05:08:21;;;;;;;2.70;2.10;;;;;;;5.65;56.55;100803.75;11447941;25;19942;-64
2024/04/22 05:13:23;;;;;;;2.80;1.88;;;;;;;5.74;56.85;100807.72;11429430;25;20015;-62
2024/04/22 05:18:28;;;;;;;2.30;2.00;;;;;;;5.83;56.66;100803.75;11435759;25;20018;-64
2024/04/22 05:23:30;;;;;;;;;;;;;;;5.85;56.18;100799.22;11478318;25;19993;-63
2024/04/22 05:28:32;;;;;;;2.33;1.60;;;;;;;5.88;56.14;100799.06;11463010;25;19929;-63
2024/04/22 05:38:53;;;;;;;2.40;2.00;;;;;;;6.00;56.18;100793.19;11412838;25;19996;-63
2024/04/22 05:43:55;;;;;;;3.05;2.30;;;;;;;6.04;55.58;100788.59;11460615;25;20003;-63
2024/04/22 05:48:56;;;;;;;4.05;1.92;;;;;;;6.16;56.07;100800.31;11391832;25;20019;-63
2024/04/22 05:53:58;;;;;;;4.13;1.80;;;;;;;6.23;55.59;100793.75;11413957;25;20016;-63
2024/04/22 05:59:00;;;;;;;2.67;1.98;;;;;;;6.31;55.61;100786.25;11430372;25;20474;-62
2024/04/22 06:04:05;;;;;;;2.95;2.22;;;;;;;6.32;55.51;100795.91;11453128;25;20769;-63
2024/04/22 06:09:06;;;;;;;2.70;2.22;;;;;;;6.48;55.54;100787.97;11466197;25;20013;-64
2024/04/22 06:14:08;;;;;;;3.78;2.35;;;;;;;6.47;55.27;100798.63;11446128;25;20027;-63
2024/04/22 06:19:10;;;;;;;2.28;2.08;;;;;;;6.54;55.18;100792.94;11457872;25;20013;-63
2024/04/22 06:24:12;;;;;;;2.25;2.03;;;;;;;6.55;55.60;100792.00;11467701;25;20063;-63
2024/04/22 06:29:13;;;;;;;2.97;2.35;;;;;;;6.77;55.43;100800.53;11383128;25;20005;-63
2024/04/22 06:34:17;;;;;;;2.57;2.33;;;;;;;6.91;55.34;100800.63;11473954;25;20007;-61
2024/04/22 06:39:21;;;;;;;3.92;2.40;;;;;;;7.02;54.88;100798.19;11475716;25;20004;-63
2024/04/22 06:44:22;;;;;;;4.03;3.13;;;;;;;7.02;54.97;100782.31;11466719;25;20012;-60
2024/04/22 06:49:24;;;;;;;3.25;2.58;;;;;;;7.25;55.19;100798.66;11477293;25;20015;-62
2024/04/22 06:54:30;;;;;;;3.10;2.30;;;;;;;7.38;54.58;100801.47;11465221;25;20520;-63
2024/04/22 06:59:31;;;;;;;2.70;2.45;;;;;;;7.53;54.77;100797.91;11388375;25;20024;-61
2024/04/22 07:04:33;;;;;;;3.13;2.65;;;;;;;7.70;54.85;100801.34;11475039;25;20026;-65
2024/04/22 07:09:37;;;;;;;3.00;2.70;;;;;;;7.86;54.66;100803.94;11455724;25;20008;-61
2024/04/22 07:14:38;;;;;;;2.72;2.13;;;;;;;8.01;54.34;100803.00;11449678;25;20000;-61
2024/04/22 07:19:42;;;;;;;2.97;2.60;;;;;;;8.24;54.29;100798.09;11437854;25;20035;-61
2024/04/22 07:24:47;;;;;;;4.00;2.40;;;;;;;8.54;53.97;100803.34;11443430;25;20008;-63
2024/04/22 07:30:04;;;;;;;4.18;2.60;;;;;;;8.77;53.90;100796.53;11469992;25;20045;-60
2024/04/22 07:35:10;;;;;;;3.05;2.40;;;;;;;8.94;53.42;100799.91;11438489;25;20053;-62
2024/04/22 07:40:20;;;;;;;3.05;2.67;;;;;;;9.12;53.00;100806.66;11450083;25;20085;-62
2024/04/22 07:45:23;;;;;;;4.03;3.28;;;;;;;9.33;53.13;100795.59;11433453;25;20120;-62
2024/04/22 07:50:30;;;;;;;3.20;2.90;;;;;;;9.46;52.36;100792.97;11395487;25;20013;-63
2024/04/22 07:55:34;;;;;;;3.78;2.85;;;;;;;9.46;52.35;100793.81;11450111;25;19996;-61
2024/04/22 08:00:36;;;;;;;3.27;2.20;;;;;;;9.61;52.70;100772.44;11455125;25;20008;-62
2024/04/22 08:05:37;;;;;;;3.20;2.28;;;;;;;10.03;51.24;100797.91;11446061;25;20304;-61
2024/04/22 08:10:39;;;;;;;2.80;2.50;;;;;;;10.07;51.21;100802.06;11475957;25;20032;-64
2024/04/22 08:15:40;;;;;;;4.15;2.83;;;;;;;10.10;51.46;100803.63;11465426;25;20016;-62
2024/04/22 08:20:41;;;;;;;4.40;3.13;;;;;;;10.23;51.19;100795.66;11448062;25;20006;-62
2024/04/22 08:25:43;;;;;;;3.53;3.22;;;;;;;10.37;50.79;100789.38;11436839;25;20001;-63
2024/04/22 08:30:45;;;;;;;2.97;2.50;;;;;;;10.32;50.98;100794.16;11407451;25;20020;-62
2024/04/22 08:35:46;;;;;;;4.00;2.90;;;;;;;10.52;50.53;100790.09;11428995;25;20011;-63
2024/04/22 08:40:48;;;;;;;3.28;2.75;;;;;;;10.76;50.19;100777.69;11452598;25;20460;-62
2024/04/22 08:45:50;;;;;;;3.15;2.85;;;;;;;11.13;49.96;100766.13;11449243;25;20064;-63
2024/04/22 08:50:54;;;;;;;3.10;2.80;;;;;;;11.25;49.71;100780.34;11461638;25;20016;-61
2024/04/22 08:55:56;;;;;;;3.45;3.15;;;;;;;11.06;48.92;100787.03;11430709;25;20041;-64
2024/04/22 09:00:58;;;;;;;3.00;2.40;;;;;;;10.94;48.02;100783.50;11460189;25;20011;-62
2024/04/22 09:05:59;;;;;;;3.95;3.15;;;;;;;10.81;47.94;100782.69;11430417;25;25423;-64
2024/04/22 09:11:01;;;;;;;3.00;2.70;;;;;;;11.08;48.77;100777.13;11473335;25;20040;-63
2024/04/22 09:16:05;;;;;;;4.35;2.80;;;;;;;11.88;48.25;100788.88;11440207;25;19993;-62
2024/04/22 09:21:07;;;;;;;3.05;2.63;;;;;;;12.19;45.21;100770.53;11444673;25;20012;-62
2024/04/22 09:26:10;;;;;;;3.25;2.63;;;;;;;12.13;46.10;100776.31;11464075;25;20008;-62
2024/04/22 09:31:17;;;;;;;2.92;2.10;;;;;;;11.77;45.33;100775.50;11471931;25;19997;-62
2024/04/22 09:36:19;;;;;;;3.03;2.75;;;;;;;11.83;46.07;100753.72;11414773;25;20006;-63
2024/04/22 09:41:21;;;;;;;3.55;2.42;;;;;;;12.32;46.06;100763.22;11428682;25;20002;-62
2024/04/22 09:46:26;;;;;;;3.15;2.55;;;;;;;12.42;46.60;100762.50;11445688;25;20016;-65
2024/04/22 09:51:28;;;;;;;4.95;2.92;;;;;;;12.55;45.57;100750.69;11451947;25;20002;-63
2024/04/22 09:56:34;;;;;;;3.17;2.30;;;;;;;12.93;45.29;100743.19;11395052;25;20005;-63
2024/04/22 10:01:36;;;;;;;3.20;2.90;;;;;;;13.08;44.21;100752.59;11407832;25;20018;-63
2024/04/22 10:06:38;;;;;;;2.30;2.08;;;;;;;13.05;43.23;100744.00;11460713;25;20044;-62
2024/04/22 10:11:42;;;;;;;3.70;2.17;;;;;;;12.87;45.00;100741.03;11437713;25;20001;-64
2024/04/22 10:16:59;;;;;;;4.03;2.42;;;;;;;13.78;43.25;100736.06;11450854;25;19997;-62
2024/04/22 10:22:02;;;;;;;3.72;2.83;;;;;;;13.22;43.56;100737.22;11408561;25;20015;-62
2024/04/22 10:27:10;;;;;;;3.20;2.70;;;;;;;13.20;42.70;100728.50;11485714;25;20000;-62
2024/04/22 10:32:14;;;;;;;2.60;2.40;;;;;;;13.76;42.53;100713.97;11426565;25;20112;-63
2024/04/22 10:37:16;;;;;;;2.83;2.45;;;;;;;14.41;40.72;100716.31;11452891;25;20028;-64
2024/04/22 10:42:20;;;;;;;3.33;2.33;;;;;;;15.23;38.58;100715.16;11487904;25;20023;-64
2024/04/22 10:47:22;;;;;;;3.83;1.80;;;;;;;15.47;36.87;100706.63;11475477;25;20486;-62
2024/04/22 10:52:24;;;;;;;3.28;2.05;;;;;;;15.87;37.20;100694.00;11416021;25;19998;-62
2024/04/22 10:57:26;;;;;;;2.50;1.90;;;;;;;15.97;36.14;100697.47;11457087;25;20020;-61
2024/04/22 11:02:28;;;;;;;2.20;1.58;;;;;;;16.02;33.53;100691.69;11451288;25;20004;-63
2024/04/22 11:07:30;;;;;;;1.95;1.30;;;;;;;16.57;34.62;100680.91;11483143;25;20473;-64
2024/04/22 11:12:34;;;;;;;1.75;1.33;;;;;;;16.85;32.15;100686.19;11395194;25;20016;-64
2024/04/22 11:17:36;;;;;;;1.52;1.30;;;;;;;17.35;30.79;100674.00;11459346;25;20012;-65
2024/04/22 11:22:37;;;;;;;1.85;1.70;;;;;;;17.34;31.09;100680.41;11475227;25;20341;-63
2024/04/22 11:27:39;;;;;;;1.33;1.00;;;;;;;17.43;30.40;100675.91;11421042;25;20036;-63
2024/04/22 11:32:41;;;;;;;2.25;1.38;;;;;;;17.93;32.26;100672.53;11410868;25;20013;-62
2024/04/22 11:37:43;;;;;;;4.60;1.85;;;;;;;16.64;33.42;100677.59;11394000;25;20005;-64
2024/04/22 11:42:45;;;;;;;1.30;1.00;;;;;;;15.06;34.84;100676.50;11429927;25;20577;-64
2024/04/22 11:47:47;;;;;;;1.33;0.93;;;;;;;14.39;35.43;100673.59;11469270;25;20013;-63
2024/04/22 11:52:49;;;;;;;1.65;0.90;;;;;;;13.48;35.60;100656.66;11473797;25;20008;-65
2024/04/22 11:57:50;;;;;;;1.00;0.68;;;;;;;13.65;35.34;100664.06;11465501;25;20013;-63
2024/04/22 12:02:52;;;;;;;2.03;1.00;;;;;;;13.58;37.62;100653.03;11436792;25;20001;-63
2024/04/22 12:07:53;;;;;;;2.15;1.50;;;;;;;14.23;37.92;100646.50;11439308;25;20011;-64
2024/04/22 12:12:55;;;;;;;2.72;1.40;;;;;;;14.88;35.70;100646.03;11469960;25;19993;-62
2024/04/22 12:17:58;;;;;;;2.20;0.90;;;;;;;15.65;32.08;100638.81;11412872;25;20086;-65
2024/04/22 12:22:59;;;;;;;1.90;0.90;;;;;;;15.96;31.19;100626.00;11418193;25;20001;-64
2024/04/22 12:28:02;;;;;;;1.25;0.98;;;;;;;16.15;31.79;100632.25;11439371;25;20544;-63
2024/04/22 12:33:17;;;;;;;1.40;0.82;;;;;;;16.10;30.99;100621.94;11398680;25;20033;-64
2024/04/22 12:38:19;;;;;;;1.42;0.82;;;;;;;16.42;31.27;100621.47;11458558;25;20067;-64
2024/04/22 12:43:21;;;;;;;1.83;1.30;;;;;;;15.62;32.75;100617.66;11436731;25;20008;-63
2024/04/22 12:53:44;;;;;;;1.60;1.50;;;;;;;16.30;33.89;100603.84;11416743;25;20728;-63
2024/04/22 12:58:46;;;;;;;1.38;1.08;;;;;;;15.69;33.43;100597.28;11413619;25;20008;-62
2024/04/22 13:03:47;;;;;;;2.03;0.77;;;;;;;15.54;32.56;100600.44;11378850;25;20014;-63
2024/04/22 13:08:51;;;;;;;2.90;1.10;;;;;;;15.62;32.28;100593.50;11417101;25;20576;-62
2024/04/22 13:13:52;;;;;;;1.25;0.90;;;;;;;15.56;32.45;100582.34;11449453;25;20019;-62
2024/04/22 13:18:54;;;;;;;1.77;0.95;;;;;;;15.61;32.75;100573.03;11434151;25;19996;-64
2024/04/22 13:23:57;;;;;;;1.37;0.97;;;;;;;15.99;32.31;100587.25;11322430;25;20013;-63
2024/04/22 13:28:59;;;;;;;2.03;0.90;;;;;;;15.79;32.42;100581.97;11403396;25;20019;-63
2024/04/22 13:34:00;;;;;;;1.80;0.80;;;;;;;15.92;30.87;100572.75;11443956;25;20200;-64
2024/04/22 13:39:02;;;;;;;1.80;1.20;;;;;;;15.74;30.63;100579.72;11397064;25;20615;-63
2024/04/22 13:44:04;;;;;;;1.77;0.95;;;;;;;15.30;31.96;100554.53;11411584;25;20467;-64
2024/04/22 13:49:13;;;;;;;1.50;0.95;;;;;;;15.35;29.49;100573.69;11440333;25;20617;-63
2024/04/22 13:54:15;;;;;;;1.58;1.05;;;;;;;15.12;30.59;100549.91;11413245;25;20009;-65
2024/04/22 13:59:16;;;;;;;1.70;0.90;;;;;;;15.02;30.94;100557.13;11451797;25;20044;-63
2024/04/22 14:04:19;;;;;;;2.70;0.95;;;;;;;15.08;30.45;100537.78;11428416;25;19996;-64
2024/04/22 14:09:20;;;;;;;2.70;0.90;;;;;;;15.04;29.57;100552.47;11364881;25;20103;-63
2024/04/22 14:14:23;;;;;;;0.85;0.70;;;;;;;14.57;30.58;100530.97;11436946;25;20005;-64
2024/04/22 14:19:26;;;;;;;1.35;0.85;;;;;;;14.69;30.60;100540.56;11412923;25;20250;-62
2024/04/22 14:24:28;;;;;;;0.93;0.70;;;;;;;14.55;28.76;100527.59;11407180;25;20648;-64
2024/04/22 14:29:30;;;;;;;1.85;0.90;;;;;;;14.54;30.33;100536.59;11445816;25;20060;-64
2024/04/22 14:34:31;;;;;;;1.77;0.90;;;;;;;14.53;30.57;100534.91;11460175;25;20015;-66
2024/04/22 14:39:32;;;;;;;1.45;1.20;;;;;;;14.19;29.55;100513.94;11402848;25;20041;-65
2024/04/22 14:44:36;;;;;;;1.02;0.75;;;;;;;14.10;31.19;100521.81;11434848;25;20013;-64
2024/04/22 14:49:42;;;;;;;2.40;0.57;;;;;;;13.89;31.49;100515.75;11415760;25;20411;-63
2024/04/22 14:54:43;;;;;;;1.13;0.70;;;;;;;13.79;34.09;100519.22;11427663;25;20009;-63
2024/04/22 14:59:45;;;;;;;2.58;1.00;;;;;;;13.54;34.68;100501.00;11468910;25;20636;-64
2024/04/22 15:04:47;;;;;;;4.13;1.02;;;;;;;13.47;35.34;100522.09;11475104;25;20000;-64
2024/04/22 15:09:49;;;;;;;1.35;1.08;;;;;;;13.32;35.63;100516.25;11468711;25;20085;-65
2024/04/22 15:14:51;;;;;;;1.40;0.93;;;;;;;13.14;34.56;100510.69;11465026;25;20087;-64
2024/04/22 15:19:53;;;;;;;1.55;1.00;;;;;;;13.24;35.45;100516.94;11466934;25;20077;-64
2024/04/22 15:24:56;;;;;;;1.00;0.60;;;;;;;13.24;34.39;100511.59;11425559;25;20013;-65
2024/04/22 15:29:57;;;;;;;1.45;0.90;;;;;;;13.17;35.21;100501.56;11426089;25;19992;-65
2024/04/22 15:34:59;;;;;;;1.38;1.00;;;;;;;13.22;34.80;100508.19;11451188;25;20015;-65
2024/04/22 15:40:00;;;;;;;1.45;1.20;;;;;;;13.04;33.57;100499.09;11437567;25;20000;-63
2024/04/22 15:45:02;;;;;;;0.93;0.65;;;;;;;13.03;33.98;100505.41;11381710;25;20000;-63
2024/04/22 15:50:04;;;;;;;2.33;0.93;;;;;;;12.77;34.83;100507.69;11427137;25;20398;-64
2024/04/22 15:55:06;;;;;;;2.92;0.70;;;;;;;12.72;35.61;100494.72;11441481;25;20438;-63
2024/04/22 16:00:08;;;;;;;1.55;0.73;;;;;;;12.46;34.49;100456.88;11426818;25;20040;-65
2024/04/22 16:05:12;;;;;;;1.05;0.80;;;;;;;12.68;34.88;100499.47;11460998;25;20039;-64
2024/04/22 16:10:13;;;;;;;1.23;0.75;;;;;;;12.60;35.83;100490.44;11454862;25;20011;-69
2024/04/22 16:15:19;;;;;;;1.27;1.05;;;;;;;12.51;33.62;100497.41;11441156;25;20078;-66
2024/04/22 16:20:21;;;;;;;1.80;0.75;;;;;;;12.44;32.49;100493.56;11426196;25;20087;-65
2024/04/22 16:25:24;;;;;;;1.70;1.02;;;;;;;12.34;33.04;100494.34;11391256;25;20001;-66
2024/04/22 16:30:26;;;;;;;1.47;0.97;;;;;;;12.19;32.86;100491.13;11395420;25;20420;-65
2024/04/22 16:35:27;;;;;;;1.75;1.13;;;;;;;12.07;33.37;100484.16;11464845;25;20728;-65
2024/04/22 16:40:32;;;;;;;1.50;1.10;;;;;;;11.78;33.06;100462.50;11440261;25;20032;-65
2024/04/22 16:45:34;;;;;;;;;;;;;;;11.93;32.22;100481.78;11465098;25;20714;-64
2024/04/22 16:50:35;;;;;;;0.98;0.75;;;;;;;11.82;32.64;100475.47;11430725;25;19949;-64
2024/04/22 16:55:38;;;;;;;2.17;0.90;;;;;;;11.83;32.81;100482.50;11466301;25;19999;-65
2024/04/22 17:00:41;;;;;;;2.28;0.98;;;;;;;11.83;33.97;100479.00;11452112;25;20085;-64
2024/04/22 17:05:44;;;;;;;1.33;0.57;;;;;;;11.45;33.93;100450.97;11473822;25;20028;-66
2024/04/22 17:10:46;;;;;;;1.50;0.80;;;;;;;11.66;34.01;100483.91;11431122;25;19996;-63
2024/04/22 17:15:47;;;;;;;1.33;0.80;;;;;;;11.58;33.62;100488.97;11432911;25;20011;-64
2024/04/22 17:20:54;;;;;;;1.00;0.90;;;;;;;11.54;33.49;100487.53;11372136;25;20052;-64
2024/04/22 17:25:55;;;;;;;2.10;0.77;;;;;;;11.36;34.25;100489.03;11392596;25;20267;-64
2024/04/22 17:31:00;;;;;;;1.77;0.95;;;;;;;11.37;35.15;100490.72;11432952;25;20012;-65
2024/04/22 17:36:01;;;;;;;1.17;0.80;;;;;;;11.24;37.85;100512.16;11414321;25;20735;-63
2024/04/22 17:41:03;;;;;;;1.02;0.80;;;;;;;11.06;41.50;100504.66;11389229;25;20355;-64
2024/04/22 17:46:07;;;;;;;1.05;0.80;;;;;;;10.78;42.98;100513.97;11463383;25;20434;-64
2024/04/22 17:51:14;;;;;;;0.90;0.70;;;;;;;10.59;43.66;100507.38;11450718;25;20016;-63
2024/04/22 17:56:15;;;;;;;1.25;0.70;;;;;;;10.56;44.51;100517.41;11418558;25;20001;-64
2024/04/22 18:01:17;;;;;;;0.95;0.52;;;;;;;10.51;45.02;100519.56;11418892;25;20001;-63
2024/04/22 18:06:18;;;;;;;3.97;0.93;;;;;;;10.46;45.35;100527.91;11427113;25;20078;-63
2024/04/22 18:11:22;;;;;;;1.67;1.10;;;;;;;10.34;45.81;100528.81;11481509;25;20007;-66
2024/04/22 18:16:27;;;;;;;1.70;1.10;;;;;;;10.27;46.17;100531.91;11444745;25;20021;-64
2024/04/22 18:21:29;;;;;;;1.52;1.20;;;;;;;10.17;46.67;100540.72;11455478;25;20111;-63
2024/04/22 18:26:30;;;;;;;1.58;1.20;;;;;;;10.13;47.15;100558.69;11451118;25;20014;-65
2024/04/22 18:31:36;;;;;;;1.83;0.98;;;;;;;9.78;48.30;100548.00;11401686;25;20019;-64
2024/04/22 18:36:38;;;;;;;6.35;1.33;;;;;;;9.39;50.78;100553.38;11483145;25;20030;-63
2024/04/22 18:41:41;;;;;;;2.90;1.05;;;;;;;9.39;52.85;100561.34;11393729;25;20508;-61
2024/04/22 18:46:43;;;;;;;7.47;6.85;;;;;;;9.15;53.68;100551.50;11445022;25;20000;-63
2024/04/22 18:51:44;;;;;;;1.48;0.90;;;;;;;9.05;53.90;100566.34;11462357;25;20302;-64
2024/04/22 18:56:46;;;;;;;0.80;0.73;;;;;;;8.93;53.56;100562.78;11441360;25;20000;-64
2024/04/22 19:01:49;;;;;;;2.55;1.52;;;;;;;8.92;53.04;100561.06;11462611;25;19997;-64
2024/04/22 19:06:51;;;;;;;1.73;1.50;;;;;;;8.90;54.49;100560.31;11463183;25;20023;-64
2024/04/22 19:11:52;;;;;;;3.05;2.72;;;;;;;8.80;53.59;100557.44;11474644;25;19993;-64
2024/04/22 19:16:54;;;;;;;1.50;1.40;;;;;;;8.89;54.80;100539.16;11474935;25;20024;-65
2024/04/22 19:21:56;;;;;;;1.40;0.93;;;;;;;9.06;55.34;100557.44;11474187;25;19997;-65
2024/04/22 19:27:04;;;;;;;1.33;1.08;;;;;;;8.95;54.81;100528.16;11478109;25;20008;-65
2024/04/22 19:32:08;;;;;;;1.57;1.27;;;;;;;9.13;55.00;100553.41;11435252;25;20015;-64
2024/04/22 19:37:10;;;;;;;1.98;1.17;;;;;;;9.15;55.48;100562.13;11387881;25;20032;-64
2024/04/22 19:42:11;;;;;;;1.50;1.30;;;;;;;9.15;55.65;100553.31;11481629;25;20061;-65
2024/04/22 19:47:16;;;;;;;1.73;1.17;;;;;;;9.11;55.86;100549.16;11497667;25;20059;-64
2024/04/22 19:52:18;;;;;;;1.73;1.38;;;;;;;9.18;55.92;100561.91;11471121;25;20015;-65
2024/04/22 19:57:19;;;;;;;2.78;2.05;;;;;;;9.16;55.86;100578.91;11440280;25;20350;-63
2024/04/22 20:02:28;;;;;;;1.80;1.60;;;;;;;9.05;54.68;100566.34;11452320;25;20035;-62
2024/04/22 20:07:29;;;;;;;3.90;2.15;;;;;;;8.94;56.04;100568.91;11460509;25;20227;-65
2024/04/22 20:12:34;;;;;;;2.40;1.83;;;;;;;8.90;55.23;100568.25;11454511;25;20446;-64
2024/04/22 20:18:02;;;;;;;2.88;1.58;;;;;;;8.87;55.71;100572.94;11430609;25;20004;-66
2024/04/22 20:23:04;;;;;;;3.28;1.42;;;;;;;8.70;55.09;100561.66;11395176;25;20411;-65
2024/04/22 20:28:06;;;;;;;2.22;1.65;;;;;;;8.73;55.54;100577.38;11432494;25;20015;-67
2024/04/22 20:33:07;;;;;;;1.85;1.48;;;;;;;8.68;55.75;100587.47;11437442;25;20017;-66
2024/04/22 20:38:09;;;;;;;2.88;1.83;;;;;;;8.63;55.91;100584.25;11393990;25;20327;-65
2024/04/22 20:43:11;;;;;;;2.75;1.40;;;;;;;8.58;55.85;100581.06;11435470;25;20068;-66
2024/04/22 20:48:12;;;;;;;1.80;1.58;;;;;;;8.48;55.45;100579.03;11399617;25;20000;-66
2024/04/22 20:53:14;;;;;;;2.10;1.90;;;;;;;8.28;57.31;100584.78;11476864;25;20123;-67
2024/04/22 20:58:16;;;;;;;3.50;1.98;;;;;;;8.32;56.25;100575.66;11432863;25;20048;-65
2024/04/22 21:03:17;;;;;;;2.20;1.70;;;;;;;8.34;56.37;100578.22;11441093;25;20459;-66
2024/04/22 21:08:19;;;;;;;2.60;2.30;;;;;;;8.18;55.94;100570.41;11466967;25;20462;-66
2024/04/22 21:13:20;;;;;;;3.40;1.85;;;;;;;8.21;55.66;100584.34;11437168;25;20001;-66
2024/04/22 21:18:23;;;;;;;3.08;1.98;;;;;;;8.16;55.53;100581.13;11385744;25;20144;-66
2024/04/22 21:23:24;;;;;;;2.97;2.17;;;;;;;8.07;56.04;100569.31;11455539;25;20000;-65
2024/04/22 21:28:28;;;;;;;2.65;2.00;;;;;;;8.06;55.64;100582.66;11456138;25;20560;-66
2024/04/22 21:33:38;;;;;;;2.35;2.15;;;;;;;8.10;56.89;100585.00;11453356;25;20000;-65
2024/04/22 21:38:59;;;;;;;2.95;2.33;;;;;;;8.04;56.15;100584.56;11424150;25;19999;-66
2024/04/22 21:44:01;;;;;;;2.08;1.88;;;;;;;7.96;55.49;100577.13;11385492;25;20079;-67
2024/04/22 21:49:02;;;;;;;3.67;2.17;;;;;;;7.92;55.01;100586.22;11461604;25;20345;-65
2024/04/22 21:54:04;;;;;;;2.10;1.90;;;;;;;7.97;55.09;100594.69;11442611;25;20830;-64
2024/04/22 21:59:44;;;;;;;2.85;2.50;;;;;;;7.93;55.53;100588.75;11441246;25;20023;-67
2024/04/22 22:05:24;;;;;;;2.65;2.45;;;;;;;7.88;55.31;100595.31;11448677;25;20075;-65
2024/04/22 22:10:26;;;;;;;2.72;2.50;;;;;;;7.81;55.27;100593.97;11443197;25;19994;-65
2024/04/22 22:15:28;;;;;;;3.47;2.20;;;;;;;7.80;55.69;100590.50;11413904;25;20338;-67
2024/04/22 22:20:30;;;;;;;2.92;2.10;;;;;;;7.74;55.24;100582.94;11425546;25;19996;-67
2024/04/22 22:25:32;;;;;;;3.40;2.80;;;;;;;7.75;55.98;100587.28;11425356;25;20121;-67
2024/04/22 22:30:33;;;;;;;3.17;2.88;;;;;;;7.67;55.50;100592.22;11454599;25;20015;-67
2024/04/22 22:35:35;;;;;;;3.80;2.50;;;;;;;7.56;55.39;100585.78;11451793;25;20007;-66
2024/04/22 22:40:38;;;;;;;2.80;2.47;;;;;;;7.61;55.88;100589.00;11426234;25;20032;-64
2024/04/22 22:45:40;;;;;;;3.60;2.80;;;;;;;7.52;55.99;100588.72;11407718;25;20009;-65
2024/04/22 22:50:41;;;;;;;3.05;2.75;;;;;;;7.37;55.32;100580.81;11443945;25;20734;-66
2024/04/22 22:55:43;;;;;;;3.00;2.72;;;;;;;7.41;55.47;100590.25;11436083;25;20005;-66
2024/04/22 23:00:46;;;;;;;4.85;2.95;;;;;;;7.39;55.41;100586.84;11418239;25;20043;-66
2024/04/22 23:05:51;;;;;;;3.15;2.80;;;;;;;7.29;55.14;100600.75;11426815;25;20004;-66
2024/04/22 23:10:52;;;;;;;3.65;3.17;;;;;;;7.25;55.71;100593.00;11421525;25;20000;-66
2024/04/22 23:15:54;;;;;;;3.35;2.75;;;;;;;7.21;55.59;100601.22;11435627;25;20020;-66
2024/04/22 23:21:00;;;;;;;3.08;2.78;;;;;;;7.18;55.18;100588.16;11417043;25;20576;-66
2024/04/22 23:26:01;;;;;;;3.53;2.80;;;;;;;7.21;55.12;100582.69;11393332;25;20055;-66
2024/04/22 23:31:03;;;;;;;2.67;2.40;;;;;;;7.19;54.59;100571.31;11463908;25;20583;-68
2024/04/22 23:36:04;;;;;;;2.47;2.28;;;;;;;7.19;54.26;100566.03;11411586;25;20005;-67